Time;durP1;ratioP1;P1;durP2;ratioP2;P2;SDS_P1;SDS_P2;PMS_P1;PMS_P2;Temp;Humidity;BMP_temperature;BMP_pressure;BME280_temperature;BME280_humidity;BME280_pressure;Samples;Min_cycle;Max_cycle;Signal;HPM_P1;HPM_P2
2022/09/14 00:01:36;;;;;;;8.07;6.43;;;;;;;24.07;100.00;95586.38;5134377;27;20536;-52
2022/09/14 00:04:09;;;;;;;7.50;6.38;;;;;;;24.30;100.00;95572.66;5148317;27;20081;-55
2022/09/14 00:06:38;;;;;;;8.80;7.13;;;;;;;24.14;100.00;95584.31;5135221;27;20074;-50
2022/09/14 00:09:10;;;;;;;9.27;6.40;;;;;;;24.21;100.00;95584.94;5139775;27;20089;-56
2022/09/14 00:11:40;;;;;;;8.40;6.22;;;;;;;24.34;100.00;95568.38;5138991;27;20095;-50
2022/09/14 00:14:08;;;;;;;6.82;6.13;;;;;;;24.44;100.00;95567.72;5140128;27;20082;-52
2022/09/14 00:16:38;;;;;;;8.18;6.75;;;;;;;24.46;100.00;95562.88;5143285;27;20086;-50
2022/09/14 00:19:08;;;;;;;9.70;6.35;;;;;;;24.42;100.00;95563.63;5141094;27;20575;-51
2022/09/14 00:21:38;;;;;;;8.00;6.93;;;;;;;24.52;100.00;95563.75;5143965;27;20548;-54
2022/09/14 00:24:10;;;;;;;7.65;6.38;;;;;;;24.25;100.00;95564.50;5138009;27;20559;-51
2022/09/14 00:26:38;;;;;;;8.23;7.10;;;;;;;23.96;100.00;95572.00;5140860;27;20062;-48
2022/09/14 00:29:06;;;;;;;12.85;7.15;;;;;;;23.90;100.00;95584.56;5136868;27;20086;-49
2022/09/14 00:31:37;;;;;;;8.00;7.20;;;;;;;24.28;100.00;95585.56;5141557;27;20555;-54
2022/09/14 00:34:06;;;;;;;7.38;6.65;;;;;;;24.45;100.00;95590.09;5144118;27;20075;-54
2022/09/14 00:36:39;;;;;;;11.05;7.82;;;;;;;24.25;100.00;95591.44;5144693;27;20475;-48
2022/09/14 00:39:09;;;;;;;7.93;6.95;;;;;;;24.11;100.00;95593.72;5137167;27;20644;-48
2022/09/14 00:41:40;;;;;;;9.55;6.93;;;;;;;23.95;100.00;95591.91;5140011;27;20437;-49
2022/09/14 00:44:46;;;;;;;9.93;7.40;;;;;;;24.21;100.00;95584.94;5146238;27;20520;-56
2022/09/14 00:47:16;;;;;;;14.82;8.20;;;;;;;24.26;100.00;95587.72;5143044;27;20086;-54
2022/09/14 00:49:45;;;;;;;10.25;7.93;;;;;;;24.02;100.00;95594.41;5144975;27;20082;-52
2022/09/14 00:52:16;;;;;;;11.25;7.97;;;;;;;23.80;100.00;95599.78;5142106;27;20082;-51
2022/09/14 00:54:48;;;;;;;12.07;8.55;;;;;;;23.66;100.00;95594.72;5143183;27;20082;-50
2022/09/14 00:57:17;;;;;;;9.15;7.72;;;;;;;23.76;100.00;95595.97;5139084;27;20090;-53
2022/09/14 00:59:47;;;;;;;10.77;8.43;;;;;;;23.99;100.00;95578.75;5136493;27;20089;-54
2022/09/14 01:02:17;;;;;;;8.70;7.85;;;;;;;23.82;100.00;95573.44;5144844;27;20082;-52
2022/09/14 01:04:46;;;;;;;10.60;8.68;;;;;;;24.28;100.00;95572.09;5143616;27;20520;-52
2022/09/14 01:07:22;;;;;;;9.30;8.20;;;;;;;23.88;100.00;95575.94;5139112;27;20070;-54
2022/09/14 01:09:59;;;;;;;10.13;8.85;;;;;;;24.12;100.00;95581.06;5132722;27;20078;-55
2022/09/14 01:12:36;;;;;;;11.80;8.57;;;;;;;24.10;100.00;95564.34;5139234;27;20078;-55
2022/09/14 01:15:08;;;;;;;12.98;8.98;;;;;;;23.20;100.00;95542.94;5136597;27;20529;-53
2022/09/14 01:17:39;;;;;;;11.20;8.80;;;;;;;23.33;100.00;95525.66;5142312;27;20484;-53
2022/09/14 01:20:16;;;;;;;10.65;8.88;;;;;;;24.08;100.00;95520.66;5142427;27;20524;-52
2022/09/14 01:22:49;;;;;;;11.80;8.50;;;;;;;24.27;100.00;95519.28;5141012;27;21188;-50
2022/09/14 01:25:34;;;;;;;10.90;8.65;;;;;;;24.17;100.00;95524.56;5136044;27;20081;-53
2022/09/14 01:28:05;;;;;;;11.88;9.02;;;;;;;24.29;100.00;95517.13;5140385;27;20074;-53
2022/09/14 01:30:35;;;;;;;12.80;8.73;;;;;;;24.26;100.00;95506.03;5140146;27;20043;-57
2022/09/14 01:33:07;;;;;;;10.27;8.70;;;;;;;23.92;100.00;95496.28;5137431;27;20485;-58
2022/09/14 01:35:38;;;;;;;11.68;8.82;;;;;;;23.78;100.00;95492.34;5144300;27;20462;-52
2022/09/14 01:38:10;;;;;;;10.63;8.50;;;;;;;24.14;100.00;95495.44;5145476;27;20078;-52
2022/09/14 01:40:41;;;;;;;12.18;8.80;;;;;;;23.56;100.00;95499.56;5136799;27;20100;-51
2022/09/14 01:43:14;;;;;;;11.38;8.45;;;;;;;23.89;100.00;95504.84;5133761;27;20116;-49
2022/09/14 01:45:45;;;;;;;15.50;9.00;;;;;;;24.01;100.00;95511.97;5141739;27;20125;-50
2022/09/14 01:48:17;;;;;;;9.77;8.07;;;;;;;23.84;100.00;95509.34;5144987;27;20535;-54
2022/09/14 01:50:47;;;;;;;9.00;8.10;;;;;;;24.17;100.00;95516.47;5136934;27;20474;-51
2022/09/14 01:53:16;;;;;;;;;;;;;;;23.97;100.00;95513.56;5134738;27;20634;-51
2022/09/14 01:55:47;;;;;;;10.02;8.07;;;;;;;23.59;100.00;95517.91;5138906;27;19973;-55
2022/09/14 01:58:24;;;;;;;15.45;8.63;;;;;;;23.88;100.00;95507.78;5144288;27;20082;-54
2022/09/14 02:00:54;;;;;;;11.95;8.68;;;;;;;24.12;100.00;95500.25;5139459;27;20078;-51
2022/09/14 02:03:27;;;;;;;10.85;8.13;;;;;;;24.18;100.00;95488.44;5142216;27;20081;-54
2022/09/14 02:05:59;;;;;;;10.00;8.32;;;;;;;24.31;100.00;95490.75;5141348;27;20050;-56
2022/09/14 02:08:29;;;;;;;10.23;8.60;;;;;;;24.32;100.00;95484.28;5145303;27;20467;-60
2022/09/14 02:10:59;;;;;;;13.98;8.95;;;;;;;24.19;100.00;95476.63;5134098;27;20079;-53
2022/09/14 02:13:29;;;;;;;9.40;8.20;;;;;;;24.06;100.00;95475.16;5136537;27;20100;-59
2022/09/14 02:15:57;;;;;;;;;;;;;;;23.64;100.00;95489.19;5136612;27;20427;-59
2022/09/14 02:18:26;;;;;;;8.63;7.60;;;;;;;23.93;100.00;95487.13;5140211;27;19927;-57
2022/09/14 02:20:58;;;;;;;9.25;8.02;;;;;;;24.33;100.00;95477.84;5144472;27;20082;-54
2022/09/14 02:23:26;;;;;;;8.93;8.02;;;;;;;23.99;100.00;95492.59;5138265;27;20101;-56
2022/09/14 02:25:55;;;;;;;10.93;8.70;;;;;;;23.75;100.00;95490.16;5139195;27;20093;-52
2022/09/14 02:28:23;;;;;;;10.73;7.50;;;;;;;24.24;100.00;95481.25;5134605;27;20085;-55
2022/09/14 02:30:58;;;;;;;9.27;8.38;;;;;;;24.01;100.00;95482.34;5134332;27;20338;-52
2022/09/14 02:33:32;;;;;;;9.57;8.48;;;;;;;24.26;100.00;95476.41;5136167;27;20073;-58
2022/09/14 02:36:07;;;;;;;9.02;7.93;;;;;;;24.50;100.00;95479.63;5132905;27;20075;-56
2022/09/14 02:38:42;;;;;;;13.48;8.32;;;;;;;24.58;100.00;95476.47;5148941;27;20086;-55
2022/09/14 02:41:15;;;;;;;9.70;8.07;;;;;;;24.56;100.00;95465.94;5144563;27;20156;-54
2022/09/14 02:43:49;;;;;;;9.90;8.32;;;;;;;24.34;100.00;95468.69;5142275;27;20082;-55
2022/09/14 02:46:25;;;;;;;12.10;7.85;;;;;;;24.30;100.00;95475.66;5139106;27;20073;-55
2022/09/14 02:49:01;;;;;;;12.57;8.07;;;;;;;24.22;100.00;95477.97;5138778;27;20087;-54
2022/09/14 02:51:33;;;;;;;9.88;7.70;;;;;;;24.32;100.00;95470.81;5134822;27;20079;-52
2022/09/14 02:54:06;;;;;;;8.80;7.28;;;;;;;24.26;100.00;95471.84;5144235;27;20476;-52
2022/09/14 02:56:36;;;;;;;9.02;7.70;;;;;;;24.02;100.00;95462.41;5137339;27;20075;-52
2022/09/14 02:59:05;;;;;;;10.45;8.02;;;;;;;23.11;100.00;95455.66;5137259;27;20086;-55
2022/09/14 03:01:34;;;;;;;13.15;8.00;;;;;;;23.21;100.00;95455.81;5142220;27;20523;-55
2022/09/14 03:04:03;;;;;;;12.18;8.10;;;;;;;23.47;100.00;95445.38;5153305;27;20555;-51
2022/09/14 03:06:31;;;;;;;10.63;8.20;;;;;;;23.62;100.00;95447.44;5140939;27;20093;-50
2022/09/14 03:09:00;;;;;;;9.00;8.10;;;;;;;23.93;100.00;95435.97;5139456;27;20069;-56
2022/09/14 03:11:28;;;;;;;10.05;8.48;;;;;;;24.12;100.00;95440.97;5134451;27;20083;-57
2022/09/14 03:13:56;;;;;;;10.05;8.57;;;;;;;23.60;100.00;95442.28;5149322;27;20093;-51
2022/09/14 03:16:25;;;;;;;8.90;8.00;;;;;;;23.80;100.00;95436.34;5143365;27;20163;-56
2022/09/14 03:18:55;;;;;;;12.48;8.90;;;;;;;23.65;100.00;95425.41;5137627;27;20090;-50
2022/09/14 03:21:23;;;;;;;11.68;8.73;;;;;;;23.06;100.00;95433.28;5130998;27;20066;-55
2022/09/14 03:23:53;;;;;;;9.38;8.35;;;;;;;23.63;100.00;95427.53;5145924;27;20075;-52
2022/09/14 03:26:22;;;;;;;;;;;;;;;23.80;100.00;95424.78;5138593;27;20075;-54
2022/09/14 03:28:51;;;;;;;13.75;7.72;;;;;;;23.60;100.00;95426.13;5133645;27;19985;-55
2022/09/14 03:31:19;;;;;;;9.32;8.43;;;;;;;23.53;100.00;95427.41;5135535;27;20079;-56
2022/09/14 03:33:52;;;;;;;9.27;8.25;;;;;;;23.94;100.00;95417.91;5148476;27;20067;-56
2022/09/14 03:36:23;;;;;;;9.05;7.97;;;;;;;24.06;100.00;95415.91;5144778;27;20074;-56
2022/09/14 03:38:52;;;;;;;;;;;;;;;24.12;100.00;95414.03;5145502;27;20106;-58
2022/09/14 03:41:21;;;;;;;8.98;8.00;;;;;;;23.77;100.00;95415.31;5143210;27;19951;-52
2022/09/14 03:43:50;;;;;;;10.35;8.57;;;;;;;23.33;100.00;95409.13;5137251;27;20086;-54
2022/09/14 03:46:20;;;;;;;9.23;7.82;;;;;;;23.46;100.00;95408.75;5145106;27;20067;-56
2022/09/14 03:48:48;;;;;;;;;;;;;;;23.67;100.00;95405.28;5146898;27;20105;-59
2022/09/14 03:51:17;;;;;;;9.30;6.97;;;;;;;23.59;100.00;95394.91;5135837;27;19966;-55
2022/09/14 03:53:47;;;;;;;7.88;7.15;;;;;;;23.58;100.00;95387.91;5140470;27;20477;-53
2022/09/14 03:56:18;;;;;;;9.57;7.28;;;;;;;23.78;100.00;95391.91;5135144;27;20089;-52
2022/09/14 03:58:47;;;;;;;10.55;7.07;;;;;;;23.34;100.00;95387.38;5142071;27;20100;-55
2022/09/14 04:01:18;;;;;;;8.85;6.60;;;;;;;23.39;100.00;95400.06;5139661;27;20079;-55
2022/09/14 04:03:47;;;;;;;6.97;6.28;;;;;;;23.25;100.00;95404.19;5147554;27;20066;-53
2022/09/14 04:06:16;;;;;;;6.75;6.07;;;;;;;23.47;100.00;95402.34;5143220;27;20074;-57
2022/09/14 04:08:47;;;;;;;8.93;6.05;;;;;;;23.82;100.00;95398.44;5146622;27;20089;-54
2022/09/14 04:11:16;;;;;;;;;;;;;;;23.89;100.00;95405.22;5142377;27;20142;-53
2022/09/14 04:13:45;;;;;;;6.93;5.32;;;;;;;23.65;100.00;95415.44;5136941;27;19950;-55
2022/09/14 04:16:13;;;;;;;7.60;5.60;;;;;;;23.67;100.00;95432.19;5140650;27;20067;-55
2022/09/14 04:18:42;;;;;;;6.60;5.85;;;;;;;23.38;100.00;95439.63;5142054;27;20075;-56
2022/09/14 04:21:14;;;;;;;8.05;6.47;;;;;;;23.75;100.00;95444.41;5138807;27;20456;-57
2022/09/14 04:23:42;;;;;;;10.63;6.80;;;;;;;23.79;100.00;95445.50;5146595;27;20050;-57
2022/09/14 04:26:33;;;;;;;8.73;6.40;;;;;;;23.93;100.00;95452.13;5147310;27;20075;-59
2022/09/14 04:29:01;;;;;;;8.60;6.07;;;;;;;24.04;100.00;95457.59;5142204;27;20090;-57
2022/09/14 04:31:30;;;;;;;7.63;6.45;;;;;;;24.09;100.00;95461.19;5133802;27;20073;-58
2022/09/14 04:33:58;;;;;;;7.20;6.50;;;;;;;24.11;100.00;95463.59;5144691;27;20694;-57
2022/09/14 04:36:29;;;;;;;8.02;5.97;;;;;;;24.12;100.00;95465.22;5141320;27;20058;-55
2022/09/14 04:39:00;;;;;;;7.00;6.30;;;;;;;24.17;100.00;95457.22;5141543;27;20083;-55
2022/09/14 04:41:29;;;;;;;9.45;6.47;;;;;;;23.94;100.00;95444.84;5137971;27;20456;-56
2022/09/14 04:43:59;;;;;;;7.32;6.43;;;;;;;24.16;100.00;95439.44;5134461;27;20461;-54
2022/09/14 04:46:30;;;;;;;8.48;6.30;;;;;;;24.07;100.00;95438.25;5138696;27;20075;-58
2022/09/14 04:48:59;;;;;;;9.57;7.10;;;;;;;23.93;100.00;95438.66;5139238;27;20078;-57
2022/09/14 04:51:29;;;;;;;8.50;6.10;;;;;;;23.50;100.00;95436.78;5145792;27;20079;-52
2022/09/14 04:53:59;;;;;;;8.45;6.30;;;;;;;23.13;100.00;95439.28;5135579;27;20074;-55
2022/09/14 04:56:28;;;;;;;7.20;6.50;;;;;;;22.98;100.00;95435.31;5139316;27;20082;-56
2022/09/14 04:59:00;;;;;;;6.90;6.18;;;;;;;22.87;100.00;95422.75;5137200;27;20066;-56
2022/09/14 05:01:30;;;;;;;9.65;6.28;;;;;;;23.25;100.00;95429.22;5138245;27;20074;-59
2022/09/14 05:03:59;;;;;;;;;;;;;;;23.78;100.00;95418.81;5139994;27;20079;-58
2022/09/14 05:06:28;;;;;;;7.13;6.07;;;;;;;23.52;100.00;95433.84;5136155;27;19955;-55
2022/09/14 05:08:58;;;;;;;8.20;6.43;;;;;;;23.71;100.00;95429.81;5144454;27;20572;-55
2022/09/14 05:11:29;;;;;;;6.43;5.78;;;;;;;23.79;100.00;95432.03;5144256;27;20514;-58
2022/09/14 05:14:00;;;;;;;7.57;6.25;;;;;;;23.88;100.00;95430.53;5143793;27;20074;-59
2022/09/14 05:16:28;;;;;;;;;;;;;;;23.42;100.00;95431.84;5139158;27;20814;-57
2022/09/14 05:19:00;;;;;;;7.43;5.22;;;;;;;23.81;100.00;95429.09;5136619;27;20353;-55
2022/09/14 05:21:29;;;;;;;5.30;4.70;;;;;;;24.12;100.00;95431.03;5137244;27;20035;-53
2022/09/14 05:23:58;;;;;;;6.22;4.85;;;;;;;24.42;100.00;95437.78;5136988;27;20668;-48
2022/09/14 05:26:28;;;;;;;5.38;4.75;;;;;;;24.31;100.00;95427.97;5142320;27;20172;-53
2022/09/14 05:28:59;;;;;;;6.97;4.85;;;;;;;24.45;100.00;95425.69;5140242;27;20066;-49
2022/09/14 05:31:29;;;;;;;6.88;5.40;;;;;;;24.23;100.00;95423.88;5136573;27;20082;-55
2022/09/14 05:33:57;;;;;;;8.35;5.20;;;;;;;24.66;100.00;95424.75;5137924;27;20074;-55
2022/09/14 05:36:26;;;;;;;8.45;4.80;;;;;;;24.78;100.00;95422.69;5137194;27;20437;-58
2022/09/14 05:38:56;;;;;;;6.60;6.00;;;;;;;24.66;100.00;95415.88;5135326;27;20635;-58
2022/09/14 05:41:24;;;;;;;6.97;6.18;;;;;;;24.61;100.00;95417.47;5133951;27;20063;-59
2022/09/14 05:43:53;;;;;;;7.32;5.68;;;;;;;24.79;100.00;95410.84;5139365;27;20078;-58
2022/09/14 05:46:22;;;;;;;6.93;6.13;;;;;;;23.99;100.00;95406.41;5138276;27;20449;-58
2022/09/14 05:48:51;;;;;;;7.20;5.60;;;;;;;23.98;100.00;95402.06;5139861;27;20090;-57
2022/09/14 05:51:21;;;;;;;7.03;5.53;;;;;;;23.78;100.00;95408.06;5142029;27;20524;-60
2022/09/14 05:53:49;;;;;;;5.40;4.90;;;;;;;24.50;100.00;95415.78;5140875;27;20079;-58
2022/09/14 05:56:19;;;;;;;5.50;5.00;;;;;;;24.75;100.00;95407.03;5137609;27;20101;-58
2022/09/14 05:58:53;;;;;;;7.00;5.90;;;;;;;24.77;100.00;95399.47;5134947;27;20445;-58
2022/09/14 06:01:25;;;;;;;6.20;5.38;;;;;;;24.87;100.00;95396.84;5150840;27;20074;-56
2022/09/14 06:03:54;;;;;;;5.72;5.10;;;;;;;24.83;100.00;95389.56;5153426;27;20078;-56
2022/09/14 06:06:23;;;;;;;5.82;4.55;;;;;;;24.45;100.00;95388.75;5150847;27;20082;-58
2022/09/14 06:08:53;;;;;;;5.25;4.75;;;;;;;24.32;100.00;95378.38;5142725;27;20108;-58
2022/09/14 06:11:22;;;;;;;;;;;;;;;24.81;100.00;95387.13;5138996;27;20078;-56
2022/09/14 06:13:51;;;;;;;7.13;4.90;;;;;;;25.03;100.00;95392.38;5149664;27;20486;-57
2022/09/14 06:16:20;;;;;;;9.00;5.75;;;;;;;24.52;100.00;95394.75;5144773;27;20085;-57
2022/09/14 06:18:50;;;;;;;6.53;5.93;;;;;;;24.59;100.00;95395.31;5134259;27;20090;-57
2022/09/14 06:21:21;;;;;;;7.85;5.72;;;;;;;24.88;100.00;95397.69;5133272;27;20070;-58
2022/09/14 06:23:49;;;;;;;7.38;5.70;;;;;;;24.57;100.00;95400.19;5141439;27;20090;-56
2022/09/14 06:26:18;;;;;;;7.05;4.50;;;;;;;24.62;100.00;95397.50;5143985;27;20077;-56
2022/09/14 06:28:47;;;;;;;5.68;4.07;;;;;;;24.69;100.00;95401.88;5138489;27;20098;-57
2022/09/14 06:31:16;;;;;;;5.75;4.45;;;;;;;24.75;100.00;95398.94;5135279;27;20074;-57
2022/09/14 06:33:45;;;;;;;;;;;;;;;24.70;100.00;95406.19;5148800;27;20587;-54
2022/09/14 06:36:18;;;;;;;5.32;4.38;;;;;;;24.89;100.00;95407.41;5143977;27;20356;-58
2022/09/14 06:38:48;;;;;;;5.47;4.07;;;;;;;25.06;100.00;95408.03;5147252;27;20082;-55
2022/09/14 06:41:19;;;;;;;6.43;3.67;;;;;;;25.05;100.00;95408.28;5136850;27;20539;-58
2022/09/14 06:43:47;;;;;;;;;;;;;;;25.55;100.00;95399.63;5137327;27;20079;-56
2022/09/14 06:46:18;;;;;;;4.40;3.40;;;;;;;25.83;100.00;95407.56;5139823;27;20325;-55
2022/09/14 06:48:48;;;;;;;6.00;3.70;;;;;;;25.92;100.00;95403.28;5137062;27;20062;-56
2022/09/14 06:51:20;;;;;;;4.15;3.40;;;;;;;26.20;100.00;95407.38;5146733;27;20079;-54
2022/09/14 06:53:49;;;;;;;4.25;3.42;;;;;;;25.96;100.00;95404.38;5133756;27;20062;-58
2022/09/14 06:56:18;;;;;;;4.50;2.95;;;;;;;26.23;100.00;95402.22;5147714;27;20081;-56
2022/09/14 06:58:46;;;;;;;7.78;3.38;;;;;;;26.16;100.00;95396.28;5137925;27;20092;-58
2022/09/14 07:01:16;;;;;;;4.00;2.90;;;;;;;26.37;100.00;95396.28;5134086;27;20492;-55
2022/09/14 07:03:45;;;;;;;3.70;2.90;;;;;;;26.16;100.00;95393.59;5148618;27;20082;-56
2022/09/14 07:06:15;;;;;;;3.35;2.67;;;;;;;26.45;100.00;95401.94;5141897;27;20073;-54
2022/09/14 07:08:45;;;;;;;3.67;2.97;;;;;;;25.78;100.00;95395.66;5142397;27;20078;-56
2022/09/14 07:11:16;;;;;;;6.40;3.00;;;;;;;26.71;100.00;95391.16;5132969;27;20465;-56
2022/09/14 07:13:45;;;;;;;3.63;2.88;;;;;;;26.63;100.00;95386.28;5153705;27;20081;-56
2022/09/14 07:16:14;;;;;;;4.78;2.95;;;;;;;26.32;100.00;95385.47;5147664;27;20465;-55
2022/09/14 07:18:43;;;;;;;5.45;3.00;;;;;;;25.87;100.00;95387.03;5145656;27;20062;-56
2022/09/14 07:21:12;;;;;;;5.13;3.00;;;;;;;26.07;100.00;95400.59;5133026;27;20078;-57
2022/09/14 07:23:42;;;;;;;6.72;3.15;;;;;;;26.33;100.00;95406.84;5141024;27;20063;-57
2022/09/14 07:26:13;;;;;;;5.82;2.80;;;;;;;26.39;100.00;95407.63;5142042;27;20086;-58
2022/09/14 07:28:44;;;;;;;4.43;2.72;;;;;;;26.47;100.00;95396.31;5147830;27;20058;-55
2022/09/14 07:31:17;;;;;;;7.03;3.00;;;;;;;26.24;100.00;95398.44;5140791;27;20071;-55
2022/09/14 07:33:46;;;;;;;7.03;2.78;;;;;;;26.90;100.00;95400.31;5146890;27;20077;-58
2022/09/14 07:36:15;;;;;;;7.90;2.88;;;;;;;26.57;100.00;95390.91;5147604;27;20078;-56
2022/09/14 07:38:43;;;;;;;7.70;2.70;;;;;;;26.16;100.00;95398.97;5146600;27;20082;-54
2022/09/14 07:41:23;;;;;;;6.72;2.90;;;;;;;26.42;100.00;95398.97;5136964;27;20093;-58
2022/09/14 07:43:53;;;;;;;4.40;2.25;;;;;;;27.24;100.00;95394.31;5136080;27;20138;-58
2022/09/14 07:46:21;;;;;;;6.75;2.75;;;;;;;27.10;100.00;95404.06;5143577;27;20063;-56
2022/09/14 07:48:55;;;;;;;7.00;2.80;;;;;;;27.90;100.00;95388.59;5148559;27;20035;-58
2022/09/14 07:51:24;;;;;;;10.25;2.75;;;;;;;27.76;100.00;95390.28;5141788;27;20448;-57
2022/09/14 07:53:53;;;;;;;8.85;2.58;;;;;;;27.25;100.00;95411.34;5151240;27;20527;-51
2022/09/14 07:56:24;;;;;;;4.80;2.53;;;;;;;28.47;100.00;95407.22;5153809;27;20075;-56
2022/09/14 07:58:53;;;;;;;5.03;2.40;;;;;;;28.27;100.00;95402.72;5141102;27;20086;-58
2022/09/14 08:01:39;;;;;;;5.03;2.30;;;;;;;29.32;100.00;95395.81;5140894;27;20104;-59
2022/09/14 08:04:08;;;;;;;5.75;2.10;;;;;;;28.94;100.00;95408.38;5152805;27;20074;-54
2022/09/14 08:06:39;;;;;;;4.28;2.10;;;;;;;28.80;100.00;95409.09;5140211;27;20079;-57
2022/09/14 08:09:08;;;;;;;5.32;2.08;;;;;;;29.23;100.00;95402.97;5148273;27;20515;-55
2022/09/14 08:11:38;;;;;;;4.47;2.00;;;;;;;29.01;100.00;95406.19;5146912;27;20489;-54
2022/09/14 08:14:12;;;;;;;5.32;1.88;;;;;;;29.10;100.00;95412.59;5150294;27;20087;-58
2022/09/14 08:16:41;;;;;;;7.10;2.17;;;;;;;29.17;100.00;95418.50;5140074;27;20067;-58
2022/09/14 08:19:13;;;;;;;4.63;2.13;;;;;;;29.32;100.00;95420.25;5150586;27;20587;-57
2022/09/14 08:21:41;;;;;;;4.78;2.08;;;;;;;29.18;100.00;95419.31;5140721;27;20172;-56
2022/09/14 08:24:16;;;;;;;7.68;2.20;;;;;;;29.41;100.00;95423.94;5147514;27;20075;-59
2022/09/14 08:26:46;;;;;;;5.20;2.00;;;;;;;28.54;100.00;95426.69;5153038;27;20085;-59
2022/09/14 08:29:15;;;;;;;4.82;2.10;;;;;;;29.73;100.00;95420.59;5140511;27;20078;-56
2022/09/14 08:31:45;;;;;;;4.93;2.10;;;;;;;28.80;100.00;95421.81;5144726;27;20524;-59
2022/09/14 08:34:16;;;;;;;5.53;1.98;;;;;;;29.81;100.00;95413.69;5143223;27;20058;-57
2022/09/14 08:36:45;;;;;;;;;;;;;;;29.39;100.00;95414.44;5154195;27;20062;-56
2022/09/14 08:39:14;;;;;;;6.13;2.08;;;;;;;29.79;100.00;95410.44;5132278;27;19959;-58
2022/09/14 08:41:52;;;;;;;3.72;1.95;;;;;;;29.06;100.00;95406.13;5132198;27;20087;-53
2022/09/14 08:44:24;;;;;;;5.22;2.00;;;;;;;29.44;100.00;95426.06;5132059;27;20042;-58
2022/09/14 08:46:57;;;;;;;3.92;1.52;;;;;;;29.00;100.00;95416.22;5132849;27;20035;-55
2022/09/14 08:49:43;;;;;;;4.15;1.73;;;;;;;29.69;100.00;95426.88;5147683;27;20034;-58
2022/09/14 08:52:15;;;;;;;3.83;2.00;;;;;;;30.12;100.00;95422.22;5140057;27;20506;-56
2022/09/14 08:54:52;;;;;;;5.72;1.70;;;;;;;30.34;100.00;95421.66;5132043;27;20135;-57
2022/09/14 08:57:28;;;;;;;3.95;2.30;;;;;;;30.91;100.00;95416.13;5145618;27;20078;-58
2022/09/14 09:00:06;;;;;;;5.28;2.22;;;;;;;30.80;100.00;95411.94;5138863;27;20472;-56
2022/09/14 09:02:44;;;;;;;6.32;1.92;;;;;;;30.56;100.00;95412.88;5145161;27;20085;-58
2022/09/14 09:05:25;;;;;;;8.55;2.00;;;;;;;30.71;100.00;95411.81;5141389;27;20051;-56
2022/09/14 09:07:57;;;;;;;6.47;1.98;;;;;;;30.02;100.00;95420.47;5150475;27;20054;-58
2022/09/14 09:10:27;;;;;;;5.43;1.67;;;;;;;31.41;100.00;95424.47;5143015;27;20097;-59
2022/09/14 09:12:59;;;;;;;3.67;1.67;;;;;;;30.56;100.00;95425.66;5142572;27;20452;-58
2022/09/14 09:15:29;;;;;;;3.30;1.60;;;;;;;29.93;100.00;95437.72;5146427;27;20533;-58
2022/09/14 09:18:01;;;;;;;4.57;1.85;;;;;;;30.72;100.00;95432.47;5140590;27;20046;-51
2022/09/14 09:20:32;;;;;;;4.25;1.67;;;;;;;30.01;100.00;95435.16;5143335;27;20076;-58
2022/09/14 09:23:07;;;;;;;4.60;1.60;;;;;;;30.17;100.00;95437.66;5138575;27;20059;-50
2022/09/14 09:25:48;;;;;;;5.40;1.60;;;;;;;29.96;100.00;95440.66;5149500;27;20069;-54
2022/09/14 09:28:18;;;;;;;1.85;1.30;;;;;;;30.49;100.00;95442.41;5147871;27;20054;-56
2022/09/14 09:30:47;;;;;;;;;;;;;;;30.65;100.00;95448.38;5133348;27;20075;-57
2022/09/14 09:33:17;;;;;;;4.15;1.75;;;;;;;30.70;100.00;95449.13;5139894;27;19951;-57
2022/09/14 09:35:46;;;;;;;5.82;1.85;;;;;;;30.68;100.00;95454.03;5152537;27;20089;-56
2022/09/14 09:38:15;;;;;;;4.28;1.73;;;;;;;30.55;100.00;95454.78;5145956;27;20070;-54
2022/09/14 09:40:46;;;;;;;4.60;2.03;;;;;;;29.81;100.00;95465.34;5144756;27;20077;-53
2022/09/14 09:43:18;;;;;;;3.35;1.67;;;;;;;29.68;100.00;95457.88;5137781;27;20070;-59
2022/09/14 09:46:07;;;;;;;6.07;2.28;;;;;;;30.10;100.00;95454.34;5135260;27;20093;-56
2022/09/14 09:48:40;;;;;;;7.17;1.67;;;;;;;29.38;100.00;95459.81;5148199;27;20570;-55
2022/09/14 09:51:12;;;;;;;6.18;1.80;;;;;;;29.44;100.00;95460.59;5135993;27;20074;-55
2022/09/14 09:53:48;;;;;;;12.00;2.05;;;;;;;29.79;100.00;95460.19;5139558;27;20084;-56
2022/09/14 09:56:19;;;;;;;4.22;1.75;;;;;;;29.72;100.00;95450.75;5145140;27;20039;-54
2022/09/14 09:58:50;;;;;;;4.45;2.10;;;;;;;30.05;100.00;95451.69;5143867;27;20085;-54
2022/09/14 10:01:21;;;;;;;4.57;1.50;;;;;;;30.02;100.00;95449.56;5144758;27;20542;-54
2022/09/14 10:04:02;;;;;;;3.80;2.05;;;;;;;29.76;100.00;95449.09;5141275;27;20074;-51
2022/09/14 10:06:30;;;;;;;5.35;2.10;;;;;;;30.64;100.00;95442.13;5147507;27;20085;-56
2022/09/14 10:08:59;;;;;;;5.40;1.67;;;;;;;30.08;100.00;95439.44;5139208;27;20081;-55
2022/09/14 10:11:30;;;;;;;4.75;1.90;;;;;;;30.18;100.00;95436.56;5140631;27;20070;-51
2022/09/14 10:14:01;;;;;;;6.28;1.75;;;;;;;30.27;98.96;95430.19;5144192;27;20446;-59
2022/09/14 10:16:34;;;;;;;3.35;1.73;;;;;;;30.19;95.79;95425.41;5138200;27;20483;-54
2022/09/14 10:19:03;;;;;;;8.80;2.00;;;;;;;30.83;93.73;95424.97;5136087;27;20423;-54
2022/09/14 10:21:32;;;;;;;3.20;1.80;;;;;;;31.27;86.26;95423.63;5136844;27;20097;-48
2022/09/14 10:24:06;;;;;;;4.78;1.73;;;;;;;31.02;82.12;95431.19;5137664;27;20078;-58
2022/09/14 10:26:36;;;;;;;4.43;2.00;;;;;;;31.21;85.05;95421.03;5146383;27;20066;-52
2022/09/14 10:29:30;;;;;;;4.43;1.80;;;;;;;30.65;84.65;95392.03;5138343;27;20079;-57
2022/09/14 10:32:03;;;;;;;6.35;1.83;;;;;;;30.39;100.00;95418.88;5145518;27;20134;-58
2022/09/14 10:34:32;;;;;;;8.10;2.08;;;;;;;31.45;85.79;95400.97;5154209;27;20097;-58
2022/09/14 10:37:13;;;;;;;2.78;1.77;;;;;;;31.89;82.46;95400.31;5144039;27;20066;-59
2022/09/14 10:39:46;;;;;;;5.90;1.83;;;;;;;31.90;78.18;95395.69;5142311;27;20086;-57
2022/09/14 10:42:18;;;;;;;5.25;2.10;;;;;;;31.66;86.32;95396.72;5143764;27;20078;-57
2022/09/14 10:44:59;;;;;;;5.25;2.00;;;;;;;31.81;87.98;95387.41;5137292;27;20512;-58
2022/09/14 10:47:53;;;;;;;5.97;1.95;;;;;;;31.30;86.97;95388.44;5141810;27;20078;-59
2022/09/14 10:50:28;;;;;;;4.63;1.92;;;;;;;31.58;88.76;95377.53;5135313;27;20078;-59
2022/09/14 10:53:04;;;;;;;2.90;1.75;;;;;;;32.87;73.43;95370.75;5129289;27;20510;-59
2022/09/14 10:55:41;;;;;;;5.43;2.05;;;;;;;33.32;73.42;95363.25;5136842;27;20758;-57
2022/09/14 10:58:24;;;;;;;5.68;1.80;;;;;;;32.87;71.61;95359.84;5145951;27;20078;-59
2022/09/14 11:01:01;;;;;;;3.83;1.67;;;;;;;31.85;80.14;95352.94;5147856;27;20603;-57
2022/09/14 11:03:45;;;;;;;4.38;1.92;;;;;;;31.40;89.22;95371.09;5144552;27;20085;-56
2022/09/14 11:06:23;;;;;;;7.88;2.33;;;;;;;31.17;94.73;95360.06;5138126;27;20473;-56
2022/09/14 11:08:56;;;;;;;4.93;1.80;;;;;;;30.93;94.43;95357.53;5136663;27;20055;-54
2022/09/14 11:11:33;;;;;;;3.00;1.85;;;;;;;30.88;97.51;95360.38;5130091;27;20560;-59
2022/09/14 11:14:13;;;;;;;4.82;2.17;;;;;;;30.06;100.00;95354.63;5144134;27;20083;-54
2022/09/14 11:16:53;;;;;;;3.55;1.95;;;;;;;31.71;88.30;95344.00;5149970;27;20089;-57
2022/09/14 11:19:29;;;;;;;3.13;1.60;;;;;;;32.01;83.68;95339.81;5145750;27;20592;-59
2022/09/14 11:22:01;;;;;;;7.43;2.42;;;;;;;31.68;89.03;95334.50;5136659;27;20071;-57
2022/09/14 11:24:36;;;;;;;3.17;1.92;;;;;;;31.98;82.90;95334.16;5143357;27;20078;-56
2022/09/14 11:27:08;;;;;;;5.88;2.10;;;;;;;31.96;83.20;95328.22;5132613;27;20086;-57
2022/09/14 11:29:40;;;;;;;4.78;1.90;;;;;;;31.85;83.21;95325.69;5147526;27;20071;-54
2022/09/14 11:32:14;;;;;;;3.97;1.83;;;;;;;32.46;81.41;95331.66;5140873;27;20485;-57
2022/09/14 11:34:53;;;;;;;4.35;1.85;;;;;;;32.79;72.23;95304.03;5136073;27;20093;-55
2022/09/14 11:37:27;;;;;;;7.93;2.05;;;;;;;31.55;84.82;95318.19;5138972;27;20094;-57
2022/09/14 11:40:01;;;;;;;3.88;1.80;;;;;;;32.02;81.24;95307.88;5136015;27;20105;-55
2022/09/14 11:42:33;;;;;;;2.92;1.73;;;;;;;32.26;72.08;95315.75;5149428;27;20082;-58
2022/09/14 11:45:04;;;;;;;3.85;1.90;;;;;;;32.33;76.69;95316.13;5140661;27;20105;-58
2022/09/14 11:47:37;;;;;;;6.22;2.28;;;;;;;33.52;69.84;95309.97;5137284;27;20074;-56